sensor_id;sensor_type;location;lat;lon;timestamp;P1;durP1;ratioP1;P2;durP2;ratioP2
25758;SDS011;13604;52.496;13.456;2022-08-21T00:02:26;9.80;;;6.18;;
25758;SDS011;13604;52.496;13.456;2022-08-21T00:04:52;7.88;;;6.32;;
25758;SDS011;13604;52.496;13.456;2022-08-21T00:07:18;12.48;;;6.00;;
25758;SDS011;13604;52.496;13.456;2022-08-21T00:09:44;8.38;;;5.32;;
25758;SDS011;13604;52.496;13.456;2022-08-21T00:12:09;8.10;;;5.97;;
25758;SDS011;13604;52.496;13.456;2022-08-21T00:14:35;9.20;;;6.00;;
25758;SDS011;13604;52.496;13.456;2022-08-21T00:17:01;7.80;;;5.47;;
25758;SDS011;13604;52.496;13.456;2022-08-21T00:19:28;7.15;;;5.78;;
25758;SDS011;13604;52.496;13.456;2022-08-21T00:21:54;6.40;;;5.22;;
25758;SDS011;13604;52.496;13.456;2022-08-21T00:24:20;8.05;;;6.03;;
25758;SDS011;13604;52.496;13.456;2022-08-21T00:26:47;10.45;;;6.55;;
25758;SDS011;13604;52.496;13.456;2022-08-21T00:29:13;8.23;;;5.82;;
25758;SDS011;13604;52.496;13.456;2022-08-21T00:31:39;7.45;;;6.00;;
25758;SDS011;13604;52.496;13.456;2022-08-21T00:34:05;8.93;;;6.30;;
25758;SDS011;13604;52.496;13.456;2022-08-21T00:36:32;9.02;;;6.78;;
25758;SDS011;13604;52.496;13.456;2022-08-21T00:38:59;10.73;;;6.70;;
25758;SDS011;13604;52.496;13.456;2022-08-21T00:41:24;8.05;;;5.95;;
25758;SDS011;13604;52.496;13.456;2022-08-21T00:43:50;8.45;;;6.18;;
25758;SDS011;13604;52.496;13.456;2022-08-21T00:46:16;9.02;;;5.97;;
25758;SDS011;13604;52.496;13.456;2022-08-21T00:48:41;9.70;;;5.80;;
25758;SDS011;13604;52.496;13.456;2022-08-21T00:51:10;6.93;;;5.68;;
25758;SDS011;13604;52.496;13.456;2022-08-21T00:53:39;7.20;;;5.57;;
25758;SDS011;13604;52.496;13.456;2022-08-21T00:56:07;10.30;;;5.47;;
25758;SDS011;13604;52.496;13.456;2022-08-21T00:58:35;10.25;;;5.82;;
25758;SDS011;13604;52.496;13.456;2022-08-21T01:01:03;9.13;;;6.45;;
25758;SDS011;13604;52.496;13.456;2022-08-21T01:03:30;8.93;;;5.57;;
25758;SDS011;13604;52.496;13.456;2022-08-21T01:05:56;6.93;;;5.75;;
25758;SDS011;13604;52.496;13.456;2022-08-21T01:08:21;8.32;;;6.40;;
25758;SDS011;13604;52.496;13.456;2022-08-21T01:10:48;7.82;;;5.80;;
25758;SDS011;13604;52.496;13.456;2022-08-21T01:13:16;9.35;;;6.10;;
25758;SDS011;13604;52.496;13.456;2022-08-21T01:15:43;9.75;;;6.50;;
25758;SDS011;13604;52.496;13.456;2022-08-21T01:18:12;11.43;;;6.20;;
25758;SDS011;13604;52.496;13.456;2022-08-21T01:20:41;10.43;;;6.72;;
25758;SDS011;13604;52.496;13.456;2022-08-21T01:23:08;9.77;;;6.22;;
25758;SDS011;13604;52.496;13.456;2022-08-21T01:25:34;10.15;;;6.20;;
25758;SDS011;13604;52.496;13.456;2022-08-21T01:28:01;11.27;;;6.38;;
25758;SDS011;13604;52.496;13.456;2022-08-21T01:30:31;7.25;;;6.00;;
25758;SDS011;13604;52.496;13.456;2022-08-21T01:33:01;11.50;;;6.53;;
25758;SDS011;13604;52.496;13.456;2022-08-21T01:35:26;9.07;;;5.50;;
25758;SDS011;13604;52.496;13.456;2022-08-21T01:37:52;7.22;;;5.10;;
25758;SDS011;13604;52.496;13.456;2022-08-21T01:40:17;9.95;;;5.43;;
25758;SDS011;13604;52.496;13.456;2022-08-21T01:42:43;7.50;;;5.03;;
25758;SDS011;13604;52.496;13.456;2022-08-21T01:45:10;9.90;;;5.25;;
25758;SDS011;13604;52.496;13.456;2022-08-21T01:47:36;11.82;;;5.43;;
25758;SDS011;13604;52.496;13.456;2022-08-21T01:50:03;7.13;;;4.85;;
25758;SDS011;13604;52.496;13.456;2022-08-21T01:52:30;9.02;;;4.53;;
25758;SDS011;13604;52.496;13.456;2022-08-21T01:54:56;6.15;;;5.15;;
25758;SDS011;13604;52.496;13.456;2022-08-21T01:57:21;10.02;;;5.07;;
25758;SDS011;13604;52.496;13.456;2022-08-21T01:59:47;8.77;;;4.90;;
25758;SDS011;13604;52.496;13.456;2022-08-21T02:02:13;9.07;;;5.38;;
25758;SDS011;13604;52.496;13.456;2022-08-21T02:04:38;10.40;;;5.32;;
25758;SDS011;13604;52.496;13.456;2022-08-21T02:07:03;11.75;;;5.03;;
25758;SDS011;13604;52.496;13.456;2022-08-21T02:09:29;9.07;;;5.13;;
25758;SDS011;13604;52.496;13.456;2022-08-21T02:11:54;6.90;;;5.22;;
25758;SDS011;13604;52.496;13.456;2022-08-21T02:14:20;8.95;;;5.05;;
25758;SDS011;13604;52.496;13.456;2022-08-21T02:16:45;9.82;;;4.78;;
25758;SDS011;13604;52.496;13.456;2022-08-21T02:19:11;5.50;;;3.90;;
25758;SDS011;13604;52.496;13.456;2022-08-21T02:21:38;8.10;;;4.47;;
25758;SDS011;13604;52.496;13.456;2022-08-21T02:24:04;7.38;;;4.80;;
25758;SDS011;13604;52.496;13.456;2022-08-21T02:26:30;10.13;;;5.00;;
25758;SDS011;13604;52.496;13.456;2022-08-21T02:28:55;9.75;;;4.78;;
25758;SDS011;13604;52.496;13.456;2022-08-21T02:31:21;8.30;;;4.38;;
25758;SDS011;13604;52.496;13.456;2022-08-21T02:33:46;7.65;;;4.43;;
25758;SDS011;13604;52.496;13.456;2022-08-21T02:36:11;8.93;;;4.80;;
25758;SDS011;13604;52.496;13.456;2022-08-21T02:38:39;17.85;;;5.10;;
25758;SDS011;13604;52.496;13.456;2022-08-21T02:41:05;7.63;;;4.45;;
25758;SDS011;13604;52.496;13.456;2022-08-21T02:43:33;9.05;;;4.20;;
25758;SDS011;13604;52.496;13.456;2022-08-21T02:45:59;10.10;;;4.30;;
25758;SDS011;13604;52.496;13.456;2022-08-21T02:48:26;9.90;;;4.43;;
25758;SDS011;13604;52.496;13.456;2022-08-21T02:50:59;7.68;;;4.20;;
25758;SDS011;13604;52.496;13.456;2022-08-21T02:53:27;6.22;;;3.67;;
25758;SDS011;13604;52.496;13.456;2022-08-21T02:55:53;7.13;;;3.88;;
25758;SDS011;13604;52.496;13.456;2022-08-21T02:58:24;9.93;;;4.25;;
25758;SDS011;13604;52.496;13.456;2022-08-21T03:00:51;8.27;;;4.25;;
25758;SDS011;13604;52.496;13.456;2022-08-21T03:03:17;6.93;;;3.78;;
25758;SDS011;13604;52.496;13.456;2022-08-21T03:05:43;7.13;;;3.85;;
25758;SDS011;13604;52.496;13.456;2022-08-21T03:08:09;7.88;;;4.07;;
25758;SDS011;13604;52.496;13.456;2022-08-21T03:10:37;8.38;;;4.15;;
25758;SDS011;13604;52.496;13.456;2022-08-21T03:13:04;10.02;;;4.75;;
25758;SDS011;13604;52.496;13.456;2022-08-21T03:15:30;7.88;;;4.78;;
25758;SDS011;13604;52.496;13.456;2022-08-21T03:17:56;10.60;;;5.28;;
25758;SDS011;13604;52.496;13.456;2022-08-21T03:20:23;6.43;;;3.63;;
25758;SDS011;13604;52.496;13.456;2022-08-21T03:22:50;7.70;;;4.13;;
25758;SDS011;13604;52.496;13.456;2022-08-21T03:25:16;8.10;;;3.65;;
25758;SDS011;13604;52.496;13.456;2022-08-21T03:27:43;10.40;;;4.82;;
25758;SDS011;13604;52.496;13.456;2022-08-21T03:30:08;7.55;;;3.47;;
25758;SDS011;13604;52.496;13.456;2022-08-21T03:32:34;7.03;;;3.63;;
25758;SDS011;13604;52.496;13.456;2022-08-21T03:35:00;11.40;;;3.42;;
25758;SDS011;13604;52.496;13.456;2022-08-21T03:37:26;7.00;;;3.85;;
25758;SDS011;13604;52.496;13.456;2022-08-21T03:39:52;10.10;;;3.45;;
25758;SDS011;13604;52.496;13.456;2022-08-21T03:42:17;12.50;;;3.60;;
25758;SDS011;13604;52.496;13.456;2022-08-21T03:44:43;7.05;;;3.58;;
25758;SDS011;13604;52.496;13.456;2022-08-21T03:47:08;9.73;;;3.78;;
25758;SDS011;13604;52.496;13.456;2022-08-21T03:49:34;13.68;;;4.05;;
25758;SDS011;13604;52.496;13.456;2022-08-21T03:52:00;9.15;;;3.17;;
25758;SDS011;13604;52.496;13.456;2022-08-21T03:54:25;10.40;;;3.88;;
25758;SDS011;13604;52.496;13.456;2022-08-21T03:56:51;7.70;;;3.20;;
25758;SDS011;13604;52.496;13.456;2022-08-21T03:59:16;5.15;;;3.10;;
25758;SDS011;13604;52.496;13.456;2022-08-21T04:01:52;5.75;;;3.38;;
25758;SDS011;13604;52.496;13.456;2022-08-21T04:04:19;9.00;;;3.58;;
25758;SDS011;13604;52.496;13.456;2022-08-21T04:06:45;7.28;;;3.50;;
25758;SDS011;13604;52.496;13.456;2022-08-21T04:09:10;7.85;;;3.25;;
25758;SDS011;13604;52.496;13.456;2022-08-21T04:11:35;7.65;;;3.40;;
25758;SDS011;13604;52.496;13.456;2022-08-21T04:14:01;5.35;;;3.15;;
25758;SDS011;13604;52.496;13.456;2022-08-21T04:16:27;8.43;;;3.45;;
25758;SDS011;13604;52.496;13.456;2022-08-21T04:18:52;10.93;;;3.95;;
25758;SDS011;13604;52.496;13.456;2022-08-21T04:21:17;4.93;;;3.33;;
25758;SDS011;13604;52.496;13.456;2022-08-21T04:23:43;8.55;;;3.53;;
25758;SDS011;13604;52.496;13.456;2022-08-21T04:26:08;6.75;;;3.33;;
25758;SDS011;13604;52.496;13.456;2022-08-21T04:28:33;8.68;;;3.20;;
25758;SDS011;13604;52.496;13.456;2022-08-21T04:30:59;10.27;;;3.33;;
25758;SDS011;13604;52.496;13.456;2022-08-21T04:33:24;6.47;;;3.03;;
25758;SDS011;13604;52.496;13.456;2022-08-21T04:35:50;6.10;;;2.92;;
25758;SDS011;13604;52.496;13.456;2022-08-21T04:38:15;9.90;;;3.58;;
25758;SDS011;13604;52.496;13.456;2022-08-21T04:40:41;9.25;;;2.70;;
25758;SDS011;13604;52.496;13.456;2022-08-21T04:43:07;8.80;;;3.00;;
25758;SDS011;13604;52.496;13.456;2022-08-21T04:45:42;7.57;;;3.03;;
25758;SDS011;13604;52.496;13.456;2022-08-21T04:48:10;4.28;;;2.70;;
25758;SDS011;13604;52.496;13.456;2022-08-21T04:50:42;5.32;;;2.70;;
25758;SDS011;13604;52.496;13.456;2022-08-21T04:53:20;11.85;;;3.28;;
25758;SDS011;13604;52.496;13.456;2022-08-21T04:55:49;7.28;;;2.88;;
25758;SDS011;13604;52.496;13.456;2022-08-21T04:58:18;4.78;;;2.58;;
25758;SDS011;13604;52.496;13.456;2022-08-21T05:00:46;8.98;;;3.13;;
25758;SDS011;13604;52.496;13.456;2022-08-21T05:03:12;9.57;;;3.45;;
25758;SDS011;13604;52.496;13.456;2022-08-21T05:05:39;14.35;;;3.72;;
25758;SDS011;13604;52.496;13.456;2022-08-21T05:08:05;9.82;;;3.30;;
25758;SDS011;13604;52.496;13.456;2022-08-21T05:10:32;11.88;;;3.28;;
25758;SDS011;13604;52.496;13.456;2022-08-21T05:12:58;5.88;;;2.28;;
25758;SDS011;13604;52.496;13.456;2022-08-21T05:15:25;7.18;;;2.55;;
25758;SDS011;13604;52.496;13.456;2022-08-21T05:17:50;7.70;;;2.65;;
25758;SDS011;13604;52.496;13.456;2022-08-21T05:20:16;13.98;;;2.80;;
25758;SDS011;13604;52.496;13.456;2022-08-21T05:22:41;8.50;;;2.90;;
25758;SDS011;13604;52.496;13.456;2022-08-21T05:25:07;6.80;;;3.03;;
25758;SDS011;13604;52.496;13.456;2022-08-21T05:27:33;6.28;;;2.55;;
25758;SDS011;13604;52.496;13.456;2022-08-21T05:29:58;6.38;;;2.58;;
25758;SDS011;13604;52.496;13.456;2022-08-21T05:32:24;9.60;;;3.08;;
25758;SDS011;13604;52.496;13.456;2022-08-21T05:34:50;7.30;;;2.95;;
25758;SDS011;13604;52.496;13.456;2022-08-21T05:37:15;10.02;;;2.60;;
25758;SDS011;13604;52.496;13.456;2022-08-21T05:39:41;6.32;;;2.95;;
25758;SDS011;13604;52.496;13.456;2022-08-21T05:42:06;5.55;;;2.70;;
25758;SDS011;13604;52.496;13.456;2022-08-21T05:44:32;5.53;;;3.13;;
25758;SDS011;13604;52.496;13.456;2022-08-21T05:47:06;7.88;;;3.10;;
25758;SDS011;13604;52.496;13.456;2022-08-21T05:49:33;8.50;;;2.58;;
25758;SDS011;13604;52.496;13.456;2022-08-21T05:52:00;6.90;;;3.15;;
25758;SDS011;13604;52.496;13.456;2022-08-21T05:54:25;8.20;;;3.03;;
25758;SDS011;13604;52.496;13.456;2022-08-21T05:56:51;6.55;;;3.20;;
25758;SDS011;13604;52.496;13.456;2022-08-21T05:59:17;10.07;;;2.97;;
25758;SDS011;13604;52.496;13.456;2022-08-21T06:01:43;12.18;;;3.25;;
25758;SDS011;13604;52.496;13.456;2022-08-21T06:04:10;10.98;;;3.45;;
25758;SDS011;13604;52.496;13.456;2022-08-21T06:06:35;8.45;;;2.85;;
25758;SDS011;13604;52.496;13.456;2022-08-21T06:09:00;9.82;;;2.95;;
25758;SDS011;13604;52.496;13.456;2022-08-21T06:11:26;10.13;;;2.53;;
25758;SDS011;13604;52.496;13.456;2022-08-21T06:13:51;10.43;;;2.47;;
25758;SDS011;13604;52.496;13.456;2022-08-21T06:16:17;4.80;;;2.72;;
25758;SDS011;13604;52.496;13.456;2022-08-21T06:18:43;8.18;;;2.80;;
25758;SDS011;13604;52.496;13.456;2022-08-21T06:21:09;8.75;;;2.90;;
25758;SDS011;13604;52.496;13.456;2022-08-21T06:23:36;4.57;;;2.20;;
25758;SDS011;13604;52.496;13.456;2022-08-21T06:26:03;8.43;;;2.50;;
25758;SDS011;13604;52.496;13.456;2022-08-21T06:28:29;8.48;;;2.50;;
25758;SDS011;13604;52.496;13.456;2022-08-21T06:30:55;6.32;;;2.45;;
25758;SDS011;13604;52.496;13.456;2022-08-21T06:33:20;11.65;;;2.83;;
25758;SDS011;13604;52.496;13.456;2022-08-21T06:35:46;6.75;;;2.70;;
25758;SDS011;13604;52.496;13.456;2022-08-21T06:38:11;7.30;;;2.65;;
25758;SDS011;13604;52.496;13.456;2022-08-21T06:40:37;9.48;;;2.92;;
25758;SDS011;13604;52.496;13.456;2022-08-21T06:43:07;5.90;;;2.63;;
25758;SDS011;13604;52.496;13.456;2022-08-21T06:45:34;10.57;;;2.58;;
25758;SDS011;13604;52.496;13.456;2022-08-21T06:48:00;8.40;;;2.50;;
25758;SDS011;13604;52.496;13.456;2022-08-21T06:50:25;6.13;;;2.60;;
25758;SDS011;13604;52.496;13.456;2022-08-21T06:52:57;8.75;;;2.70;;
25758;SDS011;13604;52.496;13.456;2022-08-21T06:55:29;7.85;;;2.30;;
25758;SDS011;13604;52.496;13.456;2022-08-21T06:57:55;8.18;;;2.75;;
25758;SDS011;13604;52.496;13.456;2022-08-21T07:00:21;10.45;;;2.90;;
25758;SDS011;13604;52.496;13.456;2022-08-21T07:02:46;8.32;;;2.85;;
25758;SDS011;13604;52.496;13.456;2022-08-21T07:05:12;10.15;;;3.45;;
25758;SDS011;13604;52.496;13.456;2022-08-21T07:07:37;10.82;;;3.03;;
25758;SDS011;13604;52.496;13.456;2022-08-21T07:10:02;8.20;;;2.55;;
25758;SDS011;13604;52.496;13.456;2022-08-21T07:12:28;8.15;;;2.38;;
25758;SDS011;13604;52.496;13.456;2022-08-21T07:14:53;14.50;;;3.33;;
25758;SDS011;13604;52.496;13.456;2022-08-21T07:17:18;9.00;;;2.25;;
25758;SDS011;13604;52.496;13.456;2022-08-21T07:19:44;11.57;;;3.03;;
25758;SDS011;13604;52.496;13.456;2022-08-21T07:22:09;5.45;;;2.45;;
25758;SDS011;13604;52.496;13.456;2022-08-21T07:24:34;11.98;;;3.10;;
25758;SDS011;13604;52.496;13.456;2022-08-21T07:27:00;7.13;;;2.22;;
25758;SDS011;13604;52.496;13.456;2022-08-21T07:29:25;12.75;;;2.85;;
25758;SDS011;13604;52.496;13.456;2022-08-21T07:31:50;7.53;;;2.53;;
25758;SDS011;13604;52.496;13.456;2022-08-21T07:34:16;5.72;;;2.72;;
25758;SDS011;13604;52.496;13.456;2022-08-21T07:36:41;7.38;;;2.40;;
25758;SDS011;13604;52.496;13.456;2022-08-21T07:39:07;10.05;;;2.40;;
25758;SDS011;13604;52.496;13.456;2022-08-21T07:41:33;10.25;;;2.35;;
25758;SDS011;13604;52.496;13.456;2022-08-21T07:43:59;6.38;;;2.25;;
25758;SDS011;13604;52.496;13.456;2022-08-21T07:46:25;4.72;;;1.90;;
25758;SDS011;13604;52.496;13.456;2022-08-21T07:48:51;7.43;;;1.88;;
25758;SDS011;13604;52.496;13.456;2022-08-21T07:51:17;5.68;;;2.60;;
25758;SDS011;13604;52.496;13.456;2022-08-21T07:53:47;6.93;;;1.92;;
25758;SDS011;13604;52.496;13.456;2022-08-21T07:56:15;5.53;;;1.92;;
25758;SDS011;13604;52.496;13.456;2022-08-21T07:58:40;5.60;;;1.88;;
25758;SDS011;13604;52.496;13.456;2022-08-21T08:01:06;5.70;;;1.80;;
25758;SDS011;13604;52.496;13.456;2022-08-21T08:03:31;5.03;;;1.80;;
25758;SDS011;13604;52.496;13.456;2022-08-21T08:05:57;3.45;;;1.42;;
25758;SDS011;13604;52.496;13.456;2022-08-21T08:08:23;4.88;;;1.67;;
25758;SDS011;13604;52.496;13.456;2022-08-21T08:10:49;3.85;;;1.65;;
25758;SDS011;13604;52.496;13.456;2022-08-21T08:13:14;6.40;;;1.70;;
25758;SDS011;13604;52.496;13.456;2022-08-21T08:15:40;3.83;;;1.35;;
25758;SDS011;13604;52.496;13.456;2022-08-21T08:18:05;5.25;;;1.75;;
25758;SDS011;13604;52.496;13.456;2022-08-21T08:20:31;4.05;;;1.60;;
25758;SDS011;13604;52.496;13.456;2022-08-21T08:22:56;6.55;;;2.13;;
25758;SDS011;13604;52.496;13.456;2022-08-21T08:25:22;6.72;;;1.60;;
25758;SDS011;13604;52.496;13.456;2022-08-21T08:27:48;4.93;;;1.50;;
25758;SDS011;13604;52.496;13.456;2022-08-21T08:30:15;4.85;;;1.88;;
25758;SDS011;13604;52.496;13.456;2022-08-21T08:32:43;3.85;;;1.85;;
25758;SDS011;13604;52.496;13.456;2022-08-21T08:35:09;6.40;;;1.80;;
25758;SDS011;13604;52.496;13.456;2022-08-21T08:37:35;8.15;;;1.70;;
25758;SDS011;13604;52.496;13.456;2022-08-21T08:40:03;6.10;;;1.83;;
25758;SDS011;13604;52.496;13.456;2022-08-21T08:42:33;7.78;;;1.50;;
25758;SDS011;13604;52.496;13.456;2022-08-21T08:45:11;4.93;;;1.80;;
25758;SDS011;13604;52.496;13.456;2022-08-21T08:47:39;5.72;;;1.65;;
25758;SDS011;13604;52.496;13.456;2022-08-21T08:50:15;5.65;;;2.10;;
25758;SDS011;13604;52.496;13.456;2022-08-21T08:52:53;5.70;;;1.58;;
25758;SDS011;13604;52.496;13.456;2022-08-21T08:55:29;6.20;;;1.80;;
25758;SDS011;13604;52.496;13.456;2022-08-21T08:58:00;6.47;;;1.48;;
25758;SDS011;13604;52.496;13.456;2022-08-21T09:00:27;5.43;;;1.67;;
25758;SDS011;13604;52.496;13.456;2022-08-21T09:02:54;6.15;;;2.42;;
25758;SDS011;13604;52.496;13.456;2022-08-21T09:05:25;4.35;;;1.85;;
25758;SDS011;13604;52.496;13.456;2022-08-21T09:08:00;5.63;;;1.60;;
25758;SDS011;13604;52.496;13.456;2022-08-21T09:19:50;5.72;;;1.83;;
25758;SDS011;13604;52.496;13.456;2022-08-21T09:25:29;3.97;;;1.70;;
25758;SDS011;13604;52.496;13.456;2022-08-21T09:27:59;5.13;;;1.83;;
25758;SDS011;13604;52.496;13.456;2022-08-21T09:30:29;4.75;;;1.90;;
25758;SDS011;13604;52.496;13.456;2022-08-21T09:32:57;4.95;;;1.70;;
25758;SDS011;13604;52.496;13.456;2022-08-21T09:35:23;7.10;;;2.08;;
25758;SDS011;13604;52.496;13.456;2022-08-21T09:37:51;4.80;;;1.60;;
25758;SDS011;13604;52.496;13.456;2022-08-21T09:40:29;3.80;;;1.52;;
25758;SDS011;13604;52.496;13.456;2022-08-21T09:43:03;5.90;;;1.75;;
25758;SDS011;13604;52.496;13.456;2022-08-21T09:45:42;4.50;;;1.85;;
25758;SDS011;13604;52.496;13.456;2022-08-21T09:48:15;10.32;;;1.77;;
25758;SDS011;13604;52.496;13.456;2022-08-21T09:50:44;6.20;;;1.80;;
25758;SDS011;13604;52.496;13.456;2022-08-21T09:53:18;5.55;;;1.98;;
25758;SDS011;13604;52.496;13.456;2022-08-21T09:56:03;5.32;;;1.65;;
25758;SDS011;13604;52.496;13.456;2022-08-21T09:58:59;4.40;;;1.85;;
25758;SDS011;13604;52.496;13.456;2022-08-21T10:01:25;4.07;;;1.73;;
25758;SDS011;13604;52.496;13.456;2022-08-21T10:04:12;5.10;;;1.70;;
25758;SDS011;13604;52.496;13.456;2022-08-21T10:06:37;5.15;;;1.60;;
25758;SDS011;13604;52.496;13.456;2022-08-21T10:09:09;6.45;;;1.98;;
25758;SDS011;13604;52.496;13.456;2022-08-21T10:11:37;7.13;;;1.98;;
25758;SDS011;13604;52.496;13.456;2022-08-21T10:14:10;4.43;;;1.63;;
25758;SDS011;13604;52.496;13.456;2022-08-21T10:16:59;8.40;;;1.70;;
25758;SDS011;13604;52.496;13.456;2022-08-21T10:19:40;6.30;;;2.00;;
25758;SDS011;13604;52.496;13.456;2022-08-21T10:27:39;2.60;;;1.30;;
25758;SDS011;13604;52.496;13.456;2022-08-21T10:30:13;5.95;;;1.80;;
25758;SDS011;13604;52.496;13.456;2022-08-21T10:32:52;3.80;;;1.75;;
25758;SDS011;13604;52.496;13.456;2022-08-21T10:35:30;4.88;;;1.48;;
25758;SDS011;13604;52.496;13.456;2022-08-21T10:38:10;4.72;;;1.80;;
25758;SDS011;13604;52.496;13.456;2022-08-21T10:41:10;4.47;;;1.63;;
25758;SDS011;13604;52.496;13.456;2022-08-21T10:43:43;3.72;;;1.65;;
25758;SDS011;13604;52.496;13.456;2022-08-21T10:46:44;6.85;;;1.60;;
25758;SDS011;13604;52.496;13.456;2022-08-21T10:49:20;6.32;;;1.60;;
25758;SDS011;13604;52.496;13.456;2022-08-21T10:51:54;3.60;;;1.60;;
25758;SDS011;13604;52.496;13.456;2022-08-21T10:54:41;6.85;;;1.63;;
25758;SDS011;13604;52.496;13.456;2022-08-21T10:57:28;9.93;;;1.98;;
25758;SDS011;13604;52.496;13.456;2022-08-21T11:00:06;6.57;;;1.70;;
25758;SDS011;13604;52.496;13.456;2022-08-21T11:02:49;6.25;;;1.85;;
25758;SDS011;13604;52.496;13.456;2022-08-21T11:05:30;4.20;;;1.77;;
25758;SDS011;13604;52.496;13.456;2022-08-21T11:08:15;1.95;;;1.30;;
25758;SDS011;13604;52.496;13.456;2022-08-21T11:10:47;3.20;;;1.20;;
25758;SDS011;13604;52.496;13.456;2022-08-21T11:13:27;4.30;;;1.63;;
25758;SDS011;13604;52.496;13.456;2022-08-21T11:16:05;6.55;;;1.95;;
25758;SDS011;13604;52.496;13.456;2022-08-21T11:18:38;6.07;;;2.00;;
25758;SDS011;13604;52.496;13.456;2022-08-21T11:21:19;6.47;;;1.80;;
25758;SDS011;13604;52.496;13.456;2022-08-21T11:23:46;5.05;;;1.60;;
25758;SDS011;13604;52.496;13.456;2022-08-21T11:26:52;4.00;;;1.60;;
25758;SDS011;13604;52.496;13.456;2022-08-21T11:29:17;7.13;;;1.35;;
25758;SDS011;13604;52.496;13.456;2022-08-21T11:31:51;5.32;;;1.90;;
25758;SDS011;13604;52.496;13.456;2022-08-21T11:34:39;5.68;;;1.38;;
25758;SDS011;13604;52.496;13.456;2022-08-21T11:45:39;2.20;;;1.13;;
25758;SDS011;13604;52.496;13.456;2022-08-21T11:51:04;3.08;;;1.40;;
25758;SDS011;13604;52.496;13.456;2022-08-21T11:53:44;2.67;;;1.20;;
25758;SDS011;13604;52.496;13.456;2022-08-21T11:56:24;2.60;;;1.08;;
25758;SDS011;13604;52.496;13.456;2022-08-21T11:58:55;3.20;;;1.00;;
25758;SDS011;13604;52.496;13.456;2022-08-21T12:01:25;2.08;;;1.25;;
25758;SDS011;13604;52.496;13.456;2022-08-21T12:04:01;1.23;;;1.05;;
25758;SDS011;13604;52.496;13.456;2022-08-21T12:06:34;2.58;;;1.35;;
25758;SDS011;13604;52.496;13.456;2022-08-21T12:09:06;3.33;;;0.97;;
25758;SDS011;13604;52.496;13.456;2022-08-21T12:11:46;1.80;;;0.98;;
25758;SDS011;13604;52.496;13.456;2022-08-21T12:14:15;2.67;;;1.25;;
25758;SDS011;13604;52.496;13.456;2022-08-21T12:16:43;2.88;;;1.33;;
25758;SDS011;13604;52.496;13.456;2022-08-21T12:19:27;2.40;;;1.00;;
25758;SDS011;13604;52.496;13.456;2022-08-21T12:26:55;1.37;;;0.90;;
25758;SDS011;13604;52.496;13.456;2022-08-21T12:29:26;4.38;;;1.15;;
25758;SDS011;13604;52.496;13.456;2022-08-21T12:31:58;2.58;;;1.33;;
25758;SDS011;13604;52.496;13.456;2022-08-21T12:34:33;2.58;;;1.40;;
25758;SDS011;13604;52.496;13.456;2022-08-21T12:37:15;2.60;;;1.00;;
25758;SDS011;13604;52.496;13.456;2022-08-21T12:39:47;1.30;;;0.90;;
25758;SDS011;13604;52.496;13.456;2022-08-21T12:42:16;0.85;;;0.85;;
25758;SDS011;13604;52.496;13.456;2022-08-21T12:44:48;2.35;;;1.13;;
25758;SDS011;13604;52.496;13.456;2022-08-21T12:47:33;2.85;;;1.00;;
25758;SDS011;13604;52.496;13.456;2022-08-21T12:50:10;2.05;;;1.08;;
25758;SDS011;13604;52.496;13.456;2022-08-21T12:52:44;2.10;;;1.20;;
25758;SDS011;13604;52.496;13.456;2022-08-21T12:55:24;2.38;;;1.20;;
25758;SDS011;13604;52.496;13.456;2022-08-21T12:57:54;2.60;;;1.20;;
25758;SDS011;13604;52.496;13.456;2022-08-21T13:00:24;2.27;;;1.03;;
25758;SDS011;13604;52.496;13.456;2022-08-21T13:02:51;3.08;;;0.98;;
25758;SDS011;13604;52.496;13.456;2022-08-21T13:05:32;1.58;;;0.98;;
25758;SDS011;13604;52.496;13.456;2022-08-21T13:07:59;2.25;;;0.98;;
25758;SDS011;13604;52.496;13.456;2022-08-21T13:10:30;3.90;;;1.10;;
25758;SDS011;13604;52.496;13.456;2022-08-21T13:12:58;3.90;;;1.08;;
25758;SDS011;13604;52.496;13.456;2022-08-21T13:15:28;0.73;;;0.73;;
25758;SDS011;13604;52.496;13.456;2022-08-21T13:17:56;1.77;;;1.10;;
25758;SDS011;13604;52.496;13.456;2022-08-21T13:20:31;2.10;;;1.02;;
25758;SDS011;13604;52.496;13.456;2022-08-21T13:22:59;2.08;;;1.13;;
25758;SDS011;13604;52.496;13.456;2022-08-21T13:25:28;1.52;;;1.10;;
25758;SDS011;13604;52.496;13.456;2022-08-21T13:27:57;2.78;;;0.93;;
25758;SDS011;13604;52.496;13.456;2022-08-21T13:30:25;2.10;;;1.10;;
25758;SDS011;13604;52.496;13.456;2022-08-21T13:32:52;5.30;;;1.20;;
25758;SDS011;13604;52.496;13.456;2022-08-21T13:35:45;1.38;;;0.88;;
25758;SDS011;13604;52.496;13.456;2022-08-21T13:38:17;2.70;;;1.35;;
25758;SDS011;13604;52.496;13.456;2022-08-21T13:40:48;3.00;;;1.20;;
25758;SDS011;13604;52.496;13.456;2022-08-21T13:43:18;3.00;;;1.20;;
25758;SDS011;13604;52.496;13.456;2022-08-21T13:45:49;1.80;;;1.08;;
25758;SDS011;13604;52.496;13.456;2022-08-21T13:48:16;1.92;;;1.38;;
25758;SDS011;13604;52.496;13.456;2022-08-21T13:50:42;3.22;;;1.23;;
25758;SDS011;13604;52.496;13.456;2022-08-21T13:53:19;1.92;;;1.20;;
25758;SDS011;13604;52.496;13.456;2022-08-21T13:55:53;2.33;;;1.02;;
25758;SDS011;13604;52.496;13.456;2022-08-21T13:58:52;2.05;;;1.20;;
25758;SDS011;13604;52.496;13.456;2022-08-21T14:01:22;2.63;;;1.23;;
25758;SDS011;13604;52.496;13.456;2022-08-21T14:04:01;3.22;;;1.40;;
25758;SDS011;13604;52.496;13.456;2022-08-21T14:06:33;3.47;;;1.30;;
25758;SDS011;13604;52.496;13.456;2022-08-21T14:09:03;2.70;;;1.42;;
25758;SDS011;13604;52.496;13.456;2022-08-21T14:11:35;1.80;;;1.20;;
25758;SDS011;13604;52.496;13.456;2022-08-21T14:14:03;3.35;;;1.60;;
25758;SDS011;13604;52.496;13.456;2022-08-21T14:16:41;3.17;;;1.42;;
25758;SDS011;13604;52.496;13.456;2022-08-21T14:19:18;3.77;;;1.47;;
25758;SDS011;13604;52.496;13.456;2022-08-21T14:21:45;2.92;;;1.65;;
25758;SDS011;13604;52.496;13.456;2022-08-21T14:24:25;2.88;;;1.40;;
25758;SDS011;13604;52.496;13.456;2022-08-21T14:27:02;6.95;;;1.73;;
25758;SDS011;13604;52.496;13.456;2022-08-21T14:29:37;5.65;;;1.85;;
25758;SDS011;13604;52.496;13.456;2022-08-21T14:32:09;5.38;;;2.08;;
25758;SDS011;13604;52.496;13.456;2022-08-21T14:34:38;3.30;;;1.67;;
25758;SDS011;13604;52.496;13.456;2022-08-21T14:37:03;4.57;;;1.75;;
25758;SDS011;13604;52.496;13.456;2022-08-21T14:39:28;5.30;;;1.90;;
25758;SDS011;13604;52.496;13.456;2022-08-21T14:41:54;6.20;;;2.00;;
25758;SDS011;13604;52.496;13.456;2022-08-21T14:44:22;4.72;;;1.73;;
25758;SDS011;13604;52.496;13.456;2022-08-21T14:46:47;2.97;;;1.50;;
25758;SDS011;13604;52.496;13.456;2022-08-21T14:49:12;4.28;;;2.17;;
25758;SDS011;13604;52.496;13.456;2022-08-21T14:51:39;4.13;;;1.73;;
25758;SDS011;13604;52.496;13.456;2022-08-21T14:54:05;8.13;;;2.10;;
25758;SDS011;13604;52.496;13.456;2022-08-21T14:56:32;5.35;;;1.63;;
25758;SDS011;13604;52.496;13.456;2022-08-21T14:58:59;4.10;;;1.83;;
25758;SDS011;13604;52.496;13.456;2022-08-21T15:01:31;4.70;;;1.77;;
25758;SDS011;13604;52.496;13.456;2022-08-21T15:03:59;5.53;;;2.13;;
25758;SDS011;13604;52.496;13.456;2022-08-21T15:06:24;6.18;;;1.52;;
25758;SDS011;13604;52.496;13.456;2022-08-21T15:08:49;6.15;;;2.30;;
25758;SDS011;13604;52.496;13.456;2022-08-21T15:11:16;6.22;;;1.90;;
25758;SDS011;13604;52.496;13.456;2022-08-21T15:13:45;5.60;;;2.33;;
25758;SDS011;13604;52.496;13.456;2022-08-21T15:16:11;3.50;;;2.10;;
25758;SDS011;13604;52.496;13.456;2022-08-21T15:18:37;7.15;;;2.33;;
25758;SDS011;13604;52.496;13.456;2022-08-21T15:21:04;6.60;;;2.10;;